createdAt,value
2023-05-09T00:00:47.652Z,10.18
2023-05-09T00:01:51.941Z,10.17
2023-05-09T00:02:59.198Z,10.18
2023-05-09T00:04:02.502Z,10.19
2023-05-09T00:05:06.830Z,10.18
2023-05-09T00:06:11.089Z,10.16
2023-05-09T00:07:15.330Z,10.14
2023-05-09T00:08:19.706Z,10.11
2023-05-09T00:09:24.024Z,10.07
2023-05-09T00:10:28.156Z,10.03
2023-05-09T00:11:32.440Z,10.00
2023-05-09T00:12:36.760Z,9.97
2023-05-09T00:13:41.019Z,9.93
2023-05-09T00:14:45.337Z,9.89
2023-05-09T00:15:55.570Z,9.85
2023-05-09T00:16:58.442Z,9.80
2023-05-09T00:18:02.714Z,9.76
2023-05-09T00:19:06.873Z,9.74
2023-05-09T00:20:11.132Z,9.73
2023-05-09T00:21:15.422Z,9.72
2023-05-09T00:22:19.663Z,9.72
2023-05-09T00:23:23.936Z,9.71
2023-05-09T00:24:28.355Z,9.72
2023-05-09T00:25:32.457Z,9.72
2023-05-09T00:26:36.824Z,9.71
2023-05-09T00:27:41.063Z,9.70
2023-05-09T00:28:45.298Z,9.68
2023-05-09T00:29:49.584Z,9.67
2023-05-09T00:30:53.756Z,9.66
2023-05-09T00:31:58.167Z,9.65
2023-05-09T00:33:02.426Z,9.65
2023-05-09T00:34:06.618Z,9.63
2023-05-09T00:35:10.959Z,9.62
2023-05-09T00:36:15.036Z,9.59
2023-05-09T00:37:19.376Z,9.56
2023-05-09T00:38:23.616Z,9.53
2023-05-09T00:39:27.882Z,9.50
2023-05-09T00:40:32.342Z,9.48
2023-05-09T00:41:36.462Z,9.46
2023-05-09T00:42:40.638Z,9.45
2023-05-09T00:43:44.927Z,9.45
2023-05-09T00:44:49.212Z,9.44
2023-05-09T00:45:53.487Z,9.43
2023-05-09T00:46:57.805Z,9.42
2023-05-09T00:48:02.101Z,9.44
2023-05-09T00:49:06.166Z,9.43
2023-05-09T00:50:10.372Z,9.44
2023-05-09T00:51:14.604Z,9.45
2023-05-09T00:52:32.923Z,9.47
2023-05-09T00:53:35.955Z,9.51
2023-05-09T00:54:40.247Z,9.55
2023-05-09T00:55:44.494Z,9.59
2023-05-09T00:56:48.670Z,9.64
2023-05-09T00:57:53.019Z,9.66
2023-05-09T00:58:57.127Z,9.66
2023-05-09T01:00:01.404Z,9.67
2023-05-09T01:01:19.855Z,9.69
2023-05-09T01:02:22.969Z,9.71
2023-05-09T01:03:27.214Z,9.73
2023-05-09T01:04:31.335Z,9.73
2023-05-09T01:05:35.573Z,9.73
2023-05-09T01:06:53.987Z,9.73
2023-05-09T01:07:57.261Z,9.73
2023-05-09T01:09:01.514Z,9.74
2023-05-09T01:10:05.789Z,9.74
2023-05-09T01:11:10.097Z,9.72
2023-05-09T01:12:14.244Z,9.70
2023-05-09T01:13:18.621Z,9.70
2023-05-09T01:14:22.699Z,9.69
2023-05-09T01:15:26.937Z,9.69
2023-05-09T01:16:31.183Z,9.69
2023-05-09T01:17:35.404Z,9.68
2023-05-09T01:18:39.639Z,9.67
2023-05-09T01:19:43.946Z,9.67
2023-05-09T01:20:48.185Z,9.66
2023-05-09T01:21:52.422Z,9.66
2023-05-09T01:22:56.720Z,9.66
2023-05-09T01:24:01.043Z,9.67
2023-05-09T01:25:05.232Z,9.68
2023-05-09T01:26:09.492Z,9.70
2023-05-09T01:27:13.883Z,9.70
2023-05-09T01:28:18.041Z,9.71
2023-05-09T01:29:22.275Z,9.72
2023-05-09T01:30:26.495Z,9.73
2023-05-09T01:31:30.957Z,9.73
2023-05-09T01:32:35.088Z,9.72
2023-05-09T01:33:39.193Z,9.73
2023-05-09T01:34:43.477Z,9.73
2023-05-09T01:35:47.632Z,9.75
2023-05-09T01:36:52.024Z,9.76
2023-05-09T01:37:56.119Z,9.76
2023-05-09T01:39:00.424Z,9.77
2023-05-09T01:40:04.707Z,9.79
2023-05-09T01:41:09.859Z,9.79
2023-05-09T01:42:13.773Z,9.77
2023-05-09T01:43:18.125Z,9.76
2023-05-09T01:44:22.238Z,9.75
2023-05-09T01:45:26.494Z,9.73
2023-05-09T01:46:30.907Z,9.72
2023-05-09T01:47:35.093Z,9.72
2023-05-09T01:48:39.320Z,9.72
2023-05-09T01:49:43.548Z,9.74
2023-05-09T01:50:47.802Z,9.74
2023-05-09T01:51:52.227Z,9.75
2023-05-09T01:52:56.485Z,9.74
2023-05-09T01:54:00.751Z,9.73
2023-05-09T01:55:05.004Z,9.73
2023-05-09T01:56:09.200Z,9.74
2023-05-09T01:57:13.438Z,9.75
2023-05-09T01:58:17.722Z,9.75
2023-05-09T01:59:22.082Z,9.75
2023-05-09T02:00:26.197Z,9.76
2023-05-09T02:01:31.398Z,9.77
2023-05-09T02:02:35.380Z,9.77
2023-05-09T02:03:40.459Z,9.77
2023-05-09T02:04:44.307Z,9.79
2023-05-09T02:05:48.492Z,9.79
2023-05-09T02:06:52.771Z,9.78
2023-05-09T02:08:00.187Z,9.78
2023-05-09T02:09:03.493Z,9.78
2023-05-09T02:10:07.838Z,9.79
2023-05-09T02:11:12.057Z,9.79
2023-05-09T02:12:16.355Z,9.78
2023-05-09T02:13:23.706Z,9.76
2023-05-09T02:14:27.172Z,9.75
2023-05-09T02:15:31.157Z,9.74
2023-05-09T02:16:35.527Z,9.74
2023-05-09T02:17:39.748Z,9.73
2023-05-09T02:18:43.942Z,9.72
2023-05-09T02:19:48.308Z,9.71
2023-05-09T02:20:52.595Z,9.70
2023-05-09T02:21:56.753Z,9.68
2023-05-09T02:23:01.100Z,9.66
2023-05-09T02:24:05.396Z,9.64
2023-05-09T02:25:09.697Z,9.61
2023-05-09T02:26:13.792Z,9.59
2023-05-09T02:27:18.092Z,9.57
2023-05-09T02:28:22.375Z,9.55
2023-05-09T02:29:26.591Z,9.53
2023-05-09T02:30:31.104Z,9.51
2023-05-09T02:31:35.263Z,9.49
2023-05-09T02:32:39.567Z,9.47
2023-05-09T02:33:43.743Z,9.45
2023-05-09T02:34:48.072Z,9.43
2023-05-09T02:35:52.361Z,9.41
2023-05-09T02:36:56.682Z,9.40
2023-05-09T02:38:00.932Z,9.39
2023-05-09T02:39:05.159Z,9.38
2023-05-09T02:40:09.425Z,9.37
2023-05-09T02:41:13.639Z,9.34
2023-05-09T02:42:17.917Z,9.33
2023-05-09T02:43:22.257Z,9.32
2023-05-09T02:44:26.463Z,9.31
2023-05-09T02:45:30.718Z,9.30
2023-05-09T02:46:35.189Z,9.30
2023-05-09T02:47:39.369Z,9.27
2023-05-09T02:48:43.601Z,9.25
2023-05-09T02:49:47.852Z,9.24
2023-05-09T02:50:52.063Z,9.25
2023-05-09T02:51:56.339Z,9.26
2023-05-09T02:53:00.599Z,9.27
2023-05-09T02:54:05.096Z,9.26
2023-05-09T02:55:09.298Z,9.25
2023-05-09T02:56:13.514Z,9.24
2023-05-09T02:57:23.874Z,9.23
2023-05-09T02:58:26.764Z,9.23
2023-05-09T02:59:31.010Z,9.23
2023-05-09T03:00:35.252Z,9.23
2023-05-09T03:01:39.729Z,9.21
2023-05-09T03:02:43.952Z,9.18
2023-05-09T03:03:48.279Z,9.14
2023-05-09T03:04:52.377Z,9.09
2023-05-09T03:05:56.636Z,9.08
2023-05-09T03:07:00.922Z,9.07
2023-05-09T03:08:05.149Z,9.08
2023-05-09T03:09:09.431Z,9.09
2023-05-09T03:10:13.690Z,9.09
2023-05-09T03:11:17.995Z,9.10
2023-05-09T03:12:22.222Z,9.09
2023-05-09T03:13:26.490Z,9.10
2023-05-09T03:14:30.749Z,9.11
2023-05-09T03:15:35.033Z,9.13
2023-05-09T03:16:39.274Z,9.15
2023-05-09T03:17:43.760Z,9.18
2023-05-09T03:18:47.772Z,9.19
2023-05-09T03:19:51.995Z,9.21
2023-05-09T03:20:56.272Z,9.23
2023-05-09T03:22:00.457Z,9.24
2023-05-09T03:23:04.830Z,9.25
2023-05-09T03:24:09.024Z,9.27
2023-05-09T03:25:13.583Z,9.28
2023-05-09T03:26:17.602Z,9.30
2023-05-09T03:27:21.794Z,9.33
2023-05-09T03:28:26.111Z,9.38
2023-05-09T03:29:30.332Z,9.40
2023-05-09T03:30:34.634Z,9.43
2023-05-09T03:31:38.866Z,9.45
2023-05-09T03:32:43.300Z,9.46
2023-05-09T03:33:47.571Z,9.47
2023-05-09T03:34:51.718Z,9.49
2023-05-09T03:35:55.994Z,9.51
2023-05-09T03:37:00.289Z,9.54
2023-05-09T03:38:04.649Z,9.56
2023-05-09T03:39:08.855Z,9.58
2023-05-09T03:40:13.105Z,9.59
2023-05-09T03:41:17.477Z,9.62
2023-05-09T03:42:21.717Z,9.64
2023-05-09T03:43:26.030Z,9.65
2023-05-09T03:44:30.190Z,9.67
2023-05-09T03:45:34.441Z,9.68
2023-05-09T03:46:38.745Z,9.71
2023-05-09T03:47:43.010Z,9.73
2023-05-09T03:48:47.203Z,9.76
2023-05-09T03:49:51.656Z,9.77
2023-05-09T03:50:55.926Z,9.78
2023-05-09T03:52:00.130Z,9.79
2023-05-09T03:53:04.420Z,9.80
2023-05-09T03:54:08.646Z,9.81
2023-05-09T03:55:13.053Z,9.81
2023-05-09T03:56:17.086Z,9.81
2023-05-09T03:57:21.394Z,9.81
2023-05-09T03:58:25.558Z,9.83
2023-05-09T03:59:29.894Z,9.83
2023-05-09T04:00:34.148Z,9.84
2023-05-09T04:01:40.069Z,9.85
2023-05-09T04:02:42.768Z,9.87
2023-05-09T04:03:47.024Z,9.89
2023-05-09T04:04:51.095Z,9.90
2023-05-09T04:05:55.585Z,9.91
2023-05-09T04:06:59.723Z,9.92
2023-05-09T04:08:04.840Z,9.93
2023-05-09T04:09:08.686Z,9.94
2023-05-09T04:10:12.971Z,9.95
2023-05-09T04:11:17.228Z,9.99
2023-05-09T04:12:21.470Z,10.00
2023-05-09T04:13:25.808Z,10.01
2023-05-09T04:14:32.982Z,10.02
2023-05-09T04:15:36.326Z,10.02
2023-05-09T04:16:40.627Z,10.02
2023-05-09T04:17:44.826Z,10.04
2023-05-09T04:18:49.080Z,10.05
2023-05-09T04:19:53.354Z,10.07
2023-05-09T04:20:57.679Z,10.09
2023-05-09T04:22:02.122Z,10.09
2023-05-09T04:23:06.074Z,10.10
2023-05-09T04:24:10.468Z,10.10
2023-05-09T04:25:14.940Z,10.10
2023-05-09T04:26:18.956Z,10.11
2023-05-09T04:27:23.285Z,10.12
2023-05-09T04:28:27.607Z,10.14
2023-05-09T04:29:31.936Z,10.16
2023-05-09T04:30:36.232Z,10.16
2023-05-09T04:31:40.485Z,10.17
2023-05-09T04:32:44.816Z,10.19
2023-05-09T04:33:49.018Z,10.21
2023-05-09T04:34:53.351Z,10.24
2023-05-09T04:35:57.555Z,10.27
2023-05-09T04:37:01.753Z,10.30
2023-05-09T04:38:06.319Z,10.33
2023-05-09T04:39:10.286Z,10.36
2023-05-09T04:40:14.555Z,10.38
2023-05-09T04:41:18.778Z,10.40
2023-05-09T04:42:23.139Z,10.42
2023-05-09T04:43:27.356Z,10.42
2023-05-09T04:44:31.636Z,10.44
2023-05-09T04:45:35.884Z,10.46
2023-05-09T04:46:40.225Z,10.47
2023-05-09T04:47:44.527Z,10.49
2023-05-09T04:48:48.700Z,10.51
2023-05-09T04:49:55.944Z,10.54
2023-05-09T04:50:59.360Z,10.56
2023-05-09T04:52:03.575Z,10.59
2023-05-09T04:53:07.916Z,10.62
2023-05-09T04:54:26.364Z,10.65
2023-05-09T04:55:29.340Z,10.68
2023-05-09T04:56:33.577Z,10.73
2023-05-09T04:57:37.849Z,10.76
2023-05-09T04:58:42.098Z,10.78
2023-05-09T04:59:46.389Z,10.82
2023-05-09T05:00:50.745Z,10.84
2023-05-09T05:01:55.136Z,10.87
2023-05-09T05:02:59.371Z,10.91
2023-05-09T05:04:03.516Z,10.94
2023-05-09T05:05:12.011Z,10.98
2023-05-09T05:06:12.178Z,11.01
2023-05-09T05:07:16.410Z,11.03
2023-05-09T05:08:20.744Z,11.05
2023-05-09T05:09:24.968Z,11.07
2023-05-09T05:10:29.374Z,11.09
2023-05-09T05:11:33.550Z,11.11
2023-05-09T05:12:37.799Z,11.14
2023-05-09T05:13:42.098Z,11.17
2023-05-09T05:14:46.367Z,11.21
2023-05-09T05:15:50.746Z,11.25
2023-05-09T05:16:54.925Z,11.31
2023-05-09T05:17:59.401Z,11.36
2023-05-09T05:19:03.573Z,11.41
2023-05-09T05:20:07.811Z,11.44
2023-05-09T05:21:12.127Z,11.49
2023-05-09T05:22:32.688Z,11.53
2023-05-09T05:23:33.558Z,11.58
2023-05-09T05:24:37.773Z,11.63
2023-05-09T05:25:42.306Z,11.68
2023-05-09T05:26:46.432Z,11.71
2023-05-09T05:27:50.668Z,11.76
2023-05-09T05:28:58.039Z,11.78
2023-05-09T05:30:01.429Z,11.81
2023-05-09T05:31:05.700Z,11.84
2023-05-09T05:32:09.946Z,11.89
2023-05-09T05:33:14.231Z,11.92
2023-05-09T05:34:18.633Z,11.97
2023-05-09T05:35:22.909Z,11.99
2023-05-09T05:36:27.186Z,12.02
2023-05-09T05:37:31.458Z,12.06
2023-05-09T05:38:35.762Z,12.07
2023-05-09T05:39:54.193Z,12.11
2023-05-09T05:40:57.542Z,12.14
2023-05-09T05:42:01.679Z,12.18
2023-05-09T05:43:05.883Z,12.22
2023-05-09T05:44:10.260Z,12.26
2023-05-09T05:45:14.870Z,12.30
2023-05-09T05:46:18.892Z,12.32
2023-05-09T05:47:23.080Z,12.36
2023-05-09T05:48:27.390Z,12.40
2023-05-09T05:49:31.681Z,12.43
2023-05-09T05:50:35.957Z,12.47
2023-05-09T05:51:40.242Z,12.54
2023-05-09T05:52:44.550Z,12.59
2023-05-09T05:53:48.914Z,12.65
2023-05-09T05:54:56.181Z,12.71
2023-05-09T05:55:59.721Z,12.75
2023-05-09T05:57:03.864Z,12.78
2023-05-09T05:58:08.191Z,12.79
2023-05-09T05:59:13.519Z,12.83
2023-05-09T06:00:16.803Z,12.86
2023-05-09T06:01:21.106Z,12.90
2023-05-09T06:02:25.603Z,12.94
2023-05-09T06:03:29.874Z,12.99
2023-05-09T06:04:34.064Z,13.04
2023-05-09T06:05:38.473Z,13.08
2023-05-09T06:06:42.742Z,13.09
2023-05-09T06:07:47.048Z,13.13
2023-05-09T06:08:51.429Z,13.17
2023-05-09T06:09:55.701Z,13.22
2023-05-09T06:11:00.058Z,13.26
2023-05-09T06:12:04.481Z,13.30
2023-05-09T06:13:08.836Z,13.34
2023-05-09T06:14:13.019Z,13.40
2023-05-09T06:15:17.541Z,13.44
2023-05-09T06:16:21.697Z,13.49
2023-05-09T06:17:26.073Z,13.52
2023-05-09T06:18:30.350Z,13.57
2023-05-09T06:19:34.629Z,13.61
2023-05-09T06:20:39.045Z,13.67
2023-05-09T06:21:43.354Z,13.72
2023-05-09T06:22:47.746Z,13.77
2023-05-09T06:24:06.637Z,13.85
2023-05-09T06:24:56.355Z,13.90
2023-05-09T06:26:00.661Z,13.96
2023-05-09T06:27:05.102Z,14.02
2023-05-09T06:28:09.533Z,14.13
2023-05-09T06:29:13.700Z,14.22
2023-05-09T06:30:26.148Z,14.32
2023-05-09T06:31:24.135Z,14.40
2023-05-09T06:32:26.684Z,14.42
2023-05-09T06:33:30.975Z,14.47
2023-05-09T06:34:35.303Z,14.41
2023-05-09T06:35:39.694Z,14.33
2023-05-09T06:36:43.993Z,14.32
2023-05-09T06:37:49.002Z,14.29
2023-05-09T06:38:52.775Z,14.26
2023-05-09T06:39:57.070Z,14.29
2023-05-09T06:41:01.502Z,14.34
2023-05-09T06:42:05.901Z,14.34
2023-05-09T06:43:10.229Z,14.32
2023-05-09T06:44:14.645Z,14.28
2023-05-09T06:45:19.067Z,14.28
2023-05-09T06:46:23.177Z,14.27
2023-05-09T06:47:27.583Z,14.26
2023-05-09T06:48:31.822Z,14.29
2023-05-09T06:49:36.244Z,14.32
2023-05-09T06:50:40.611Z,14.39
2023-05-09T06:51:44.989Z,14.43
2023-05-09T06:52:49.306Z,14.49
2023-05-09T06:53:53.728Z,14.55
2023-05-09T06:54:58.106Z,14.65
2023-05-09T06:56:02.484Z,14.73
2023-05-09T06:57:06.896Z,14.81
2023-05-09T06:58:11.237Z,14.90
2023-05-09T06:59:15.582Z,14.98
2023-05-09T07:00:19.985Z,15.03
2023-05-09T07:01:24.290Z,15.08
2023-05-09T07:02:28.839Z,15.10
2023-05-09T07:03:33.052Z,15.16
2023-05-09T07:04:37.585Z,15.22
2023-05-09T07:05:41.856Z,15.27
2023-05-09T07:06:46.331Z,15.36
2023-05-09T07:07:50.576Z,15.44
2023-05-09T07:08:55.020Z,15.59
2023-05-09T07:10:10.577Z,15.73
2023-05-09T07:11:03.721Z,15.80
2023-05-09T07:12:08.177Z,15.80
2023-05-09T07:13:12.600Z,15.85
2023-05-09T07:14:16.974Z,15.85
2023-05-09T07:15:32.842Z,15.84
2023-05-09T07:16:25.799Z,15.81
2023-05-09T07:17:30.080Z,15.74
2023-05-09T07:18:35.360Z,15.64
2023-05-09T07:19:39.375Z,15.57
2023-05-09T07:20:43.646Z,15.57
2023-05-09T07:21:48.068Z,15.54
2023-05-09T07:22:52.484Z,15.52
2023-05-09T07:23:56.753Z,15.54
2023-05-09T07:25:01.185Z,15.62
2023-05-09T07:26:05.545Z,15.70
2023-05-09T07:27:09.924Z,15.68
2023-05-09T07:28:14.376Z,15.60
2023-05-09T07:29:18.607Z,15.57
2023-05-09T07:30:23.021Z,15.58
2023-05-09T07:31:27.487Z,15.57
2023-05-09T07:32:31.826Z,15.57
2023-05-09T07:33:35.994Z,15.55
2023-05-09T07:34:40.324Z,15.55
2023-05-09T07:35:47.621Z,15.56
2023-05-09T07:36:51.163Z,15.54
2023-05-09T07:37:55.479Z,15.51
2023-05-09T07:38:59.932Z,15.46
2023-05-09T07:40:07.283Z,15.46
2023-05-09T07:41:10.805Z,15.49
2023-05-09T07:42:15.061Z,15.52
2023-05-09T07:43:19.447Z,15.54
2023-05-09T07:44:23.922Z,15.54
2023-05-09T07:45:28.197Z,15.53
2023-05-09T07:46:32.491Z,15.54
2023-05-09T07:47:37.056Z,15.56
2023-05-09T07:48:41.335Z,15.59
2023-05-09T07:49:45.603Z,15.61
2023-05-09T07:50:50.045Z,15.62
2023-05-09T07:51:54.315Z,15.62
2023-05-09T07:52:58.627Z,15.64
2023-05-09T07:54:02.921Z,15.67
2023-05-09T07:55:07.220Z,15.71
2023-05-09T07:56:11.552Z,15.73
2023-05-09T07:57:16.027Z,15.74
2023-05-09T07:58:20.320Z,15.76
2023-05-09T07:59:24.803Z,15.77
2023-05-09T08:00:29.146Z,15.78
2023-05-09T08:01:33.442Z,15.77
2023-05-09T08:02:37.991Z,15.80
2023-05-09T08:03:42.260Z,15.83
2023-05-09T08:04:46.402Z,15.82
2023-05-09T08:05:50.822Z,15.82
2023-05-09T08:06:55.174Z,15.83
2023-05-09T08:07:59.461Z,15.85
2023-05-09T08:09:03.880Z,15.87
2023-05-09T08:10:08.240Z,15.85
2023-05-09T08:11:12.588Z,15.87
2023-05-09T08:12:17.038Z,15.88
2023-05-09T08:13:21.404Z,15.89
2023-05-09T08:14:25.634Z,15.90
2023-05-09T08:15:30.054Z,15.91
2023-05-09T08:16:34.389Z,15.91
2023-05-09T08:17:38.784Z,15.90
2023-05-09T08:18:43.089Z,15.91
2023-05-09T08:19:47.706Z,15.90
2023-05-09T08:20:51.858Z,15.92
2023-05-09T08:21:56.253Z,15.96
2023-05-09T08:23:00.648Z,15.98
2023-05-09T08:24:04.990Z,16.01
2023-05-09T08:25:09.612Z,16.03
2023-05-09T08:26:13.940Z,16.03
2023-05-09T08:27:18.297Z,16.04
2023-05-09T08:28:22.668Z,16.06
2023-05-09T08:29:27.040Z,16.05
2023-05-09T08:30:31.462Z,16.06
2023-05-09T08:31:35.901Z,16.07
2023-05-09T08:32:40.311Z,16.08
2023-05-09T08:33:44.553Z,16.09
2023-05-09T08:34:48.947Z,16.12
2023-05-09T08:35:53.352Z,16.13
2023-05-09T08:37:00.560Z,16.15
2023-05-09T08:38:04.028Z,16.16
2023-05-09T08:39:08.454Z,16.17
2023-05-09T08:40:13.249Z,16.17
2023-05-09T08:41:17.092Z,16.19
2023-05-09T08:42:22.444Z,16.18
2023-05-09T08:43:25.910Z,16.21
2023-05-09T08:44:30.238Z,16.22
2023-05-09T08:45:34.728Z,16.23
2023-05-09T08:46:39.156Z,16.25
2023-05-09T08:47:43.350Z,16.29
2023-05-09T08:48:47.676Z,16.35
2023-05-09T08:49:51.985Z,16.40
2023-05-09T08:50:56.562Z,16.45
2023-05-09T08:52:00.762Z,16.45
2023-05-09T08:53:05.135Z,16.48
2023-05-09T08:54:09.569Z,16.52
2023-05-09T08:55:13.862Z,16.54
2023-05-09T08:56:18.250Z,16.56
2023-05-09T08:57:22.692Z,16.57
2023-05-09T08:58:26.925Z,16.56
2023-05-09T08:59:31.334Z,16.57
2023-05-09T09:00:35.778Z,16.60
2023-05-09T09:01:40.238Z,16.62
2023-05-09T09:02:50.676Z,16.61
2023-05-09T09:03:53.563Z,16.62
2023-05-09T09:04:57.886Z,16.61
2023-05-09T09:06:02.473Z,16.63
2023-05-09T09:07:06.715Z,16.66
2023-05-09T09:08:11.154Z,16.71
2023-05-09T09:09:15.367Z,16.75
2023-05-09T09:10:19.786Z,16.79
2023-05-09T09:11:24.102Z,16.82
2023-05-09T09:12:28.437Z,16.84
2023-05-09T09:13:32.931Z,16.86
2023-05-09T09:14:37.205Z,16.87
2023-05-09T09:15:41.527Z,16.90
2023-05-09T09:16:46.063Z,16.95
2023-05-09T09:17:50.429Z,17.01
2023-05-09T09:18:56.298Z,17.07
2023-05-09T09:19:59.266Z,17.13
2023-05-09T09:21:03.574Z,17.17
2023-05-09T09:22:08.186Z,17.20
2023-05-09T09:23:12.295Z,17.23
2023-05-09T09:24:16.769Z,17.23
2023-05-09T09:25:21.183Z,17.25
2023-05-09T09:26:25.557Z,17.27
2023-05-09T09:27:30.003Z,17.31
2023-05-09T09:28:34.341Z,17.31
2023-05-09T09:29:38.752Z,17.31
2023-05-09T09:30:42.986Z,17.33
2023-05-09T09:31:47.432Z,17.31
2023-05-09T09:32:51.802Z,17.32
2023-05-09T09:33:56.123Z,17.35
2023-05-09T09:35:00.468Z,17.37
2023-05-09T09:36:04.880Z,17.38
2023-05-09T09:37:09.195Z,17.38
2023-05-09T09:38:13.753Z,17.40
2023-05-09T09:39:17.967Z,17.43
2023-05-09T09:40:22.407Z,17.45
2023-05-09T09:41:26.700Z,17.49
2023-05-09T09:42:31.214Z,17.53
2023-05-09T09:43:41.428Z,17.58
2023-05-09T09:44:44.439Z,17.63
2023-05-09T09:45:49.004Z,17.69
2023-05-09T09:46:53.268Z,17.73
2023-05-09T09:47:57.683Z,17.77
2023-05-09T09:49:02.155Z,17.80
2023-05-09T09:50:06.457Z,17.84
2023-05-09T09:51:10.887Z,17.89
2023-05-09T09:52:15.150Z,17.91
2023-05-09T09:53:33.932Z,17.90
2023-05-09T09:54:37.117Z,17.93
2023-05-09T09:55:41.522Z,17.97
2023-05-09T09:56:45.900Z,18.01
2023-05-09T09:57:50.253Z,18.04
2023-05-09T09:58:54.534Z,18.06
2023-05-09T09:59:58.991Z,18.06
2023-05-09T10:01:03.413Z,18.05
2023-05-09T10:02:08.456Z,18.02
2023-05-09T10:03:12.151Z,17.99
2023-05-09T10:04:16.765Z,17.97
2023-05-09T10:05:20.949Z,17.95
2023-05-09T10:06:25.426Z,17.95
2023-05-09T10:07:29.804Z,17.96
2023-05-09T10:08:34.261Z,17.97
2023-05-09T10:09:38.727Z,17.99
2023-05-09T10:10:42.907Z,18.03
2023-05-09T10:11:47.365Z,18.04
2023-05-09T10:12:51.716Z,18.05
2023-05-09T10:13:56.203Z,18.08
2023-05-09T10:15:00.633Z,18.12
2023-05-09T10:16:05.053Z,18.14
2023-05-09T10:17:09.511Z,18.15
2023-05-09T10:18:13.831Z,18.17
2023-05-09T10:19:18.115Z,18.20
2023-05-09T10:20:22.403Z,18.22
2023-05-09T10:21:26.742Z,18.23
2023-05-09T10:22:31.089Z,18.24
2023-05-09T10:23:49.591Z,18.26
2023-05-09T10:24:53.395Z,18.30
2023-05-09T10:25:57.397Z,18.36
2023-05-09T10:27:01.878Z,18.41
2023-05-09T10:28:06.149Z,18.47
2023-05-09T10:29:10.552Z,18.52
2023-05-09T10:30:14.981Z,18.55
2023-05-09T10:31:19.316Z,18.54
2023-05-09T10:32:23.728Z,18.56
2023-05-09T10:33:28.116Z,18.56
2023-05-09T10:34:35.500Z,18.56
2023-05-09T10:35:39.202Z,18.57
2023-05-09T10:36:43.453Z,18.58
2023-05-09T10:37:47.950Z,18.60
2023-05-09T10:39:06.753Z,18.60
2023-05-09T10:40:09.903Z,18.63
2023-05-09T10:41:14.078Z,18.65
2023-05-09T10:42:18.423Z,18.64
2023-05-09T10:43:22.826Z,18.65
2023-05-09T10:44:27.201Z,18.61
2023-05-09T10:45:31.670Z,18.60
2023-05-09T10:46:36.237Z,18.59
2023-05-09T10:47:40.570Z,18.59
2023-05-09T10:48:45.032Z,18.61
2023-05-09T10:49:49.387Z,18.63
2023-05-09T10:50:53.756Z,18.65
2023-05-09T10:51:58.077Z,18.67
2023-05-09T10:53:02.525Z,18.69
2023-05-09T10:54:06.866Z,18.73
2023-05-09T10:55:11.477Z,18.80
2023-05-09T10:56:15.662Z,18.85
2023-05-09T10:57:20.008Z,18.91
2023-05-09T10:58:38.597Z,18.97
2023-05-09T10:59:41.867Z,19.05
2023-05-09T11:00:46.227Z,19.12
2023-05-09T11:01:50.526Z,19.17
2023-05-09T11:03:09.054Z,19.23
2023-05-09T11:04:12.150Z,19.32
2023-05-09T11:05:16.726Z,19.37
2023-05-09T11:06:20.846Z,19.42
2023-05-09T11:07:25.329Z,19.44
2023-05-09T11:08:29.779Z,19.40
2023-05-09T11:09:34.182Z,19.39
2023-05-09T11:10:38.722Z,19.37
2023-05-09T11:11:42.916Z,19.37
2023-05-09T11:12:47.425Z,19.39
2023-05-09T11:13:51.860Z,19.41
2023-05-09T11:14:56.231Z,19.45
2023-05-09T11:16:00.714Z,19.47
2023-05-09T11:17:04.989Z,19.48
2023-05-09T11:18:09.524Z,19.52
2023-05-09T11:19:13.800Z,19.57
2023-05-09T11:20:18.208Z,19.62
2023-05-09T11:21:22.713Z,19.68
2023-05-09T11:22:26.967Z,19.75
2023-05-09T11:23:31.433Z,19.85
2023-05-09T11:24:35.758Z,19.96
2023-05-09T11:25:40.185Z,20.01
2023-05-09T11:26:44.748Z,20.10
2023-05-09T11:27:49.030Z,20.19
2023-05-09T11:28:53.501Z,20.20
2023-05-09T11:29:57.807Z,20.17
2023-05-09T11:31:16.290Z,20.21
2023-05-09T11:32:19.896Z,20.34
2023-05-09T11:33:24.221Z,20.44
2023-05-09T11:34:28.556Z,20.57
2023-05-09T11:35:33.004Z,20.71
2023-05-09T11:36:37.337Z,20.82
2023-05-09T11:37:41.837Z,20.89
2023-05-09T11:38:46.344Z,20.98
2023-05-09T11:39:50.774Z,20.96
2023-05-09T11:40:55.132Z,21.02
2023-05-09T11:41:59.715Z,21.10
2023-05-09T11:43:03.921Z,21.20
2023-05-09T11:44:08.347Z,21.30
2023-05-09T11:45:13.003Z,21.37
2023-05-09T11:46:17.311Z,21.45
2023-05-09T11:47:21.605Z,21.44
2023-05-09T11:48:25.967Z,21.46
2023-05-09T11:49:30.354Z,21.50
2023-05-09T11:50:34.799Z,21.54
2023-05-09T11:51:39.272Z,21.61
2023-05-09T11:52:43.705Z,21.60
2023-05-09T11:54:02.057Z,21.67
2023-05-09T11:55:05.261Z,21.76
2023-05-09T11:56:09.709Z,21.83
2023-05-09T11:57:14.268Z,21.85
2023-05-09T11:58:18.475Z,21.93
2023-05-09T11:59:22.858Z,22.07
2023-05-09T12:00:27.424Z,22.16
2023-05-09T12:01:31.908Z,22.19
2023-05-09T12:02:45.378Z,22.27
2023-05-09T12:03:48.114Z,22.30
2023-05-09T12:04:52.515Z,22.32
2023-05-09T12:05:56.987Z,22.37
2023-05-09T12:07:01.455Z,22.45
2023-05-09T12:08:05.786Z,22.54
2023-05-09T12:09:10.350Z,22.59
2023-05-09T12:10:14.751Z,22.64
2023-05-09T12:11:19.071Z,22.75
2023-05-09T12:12:23.615Z,22.82
2023-05-09T12:13:28.140Z,22.82
2023-05-09T12:14:38.496Z,22.79
2023-05-09T12:15:42.596Z,22.66
2023-05-09T12:16:46.548Z,22.66
2023-05-09T12:17:52.083Z,22.68
2023-05-09T12:18:55.540Z,22.68
2023-05-09T12:20:00.003Z,22.77
2023-05-09T12:21:04.447Z,22.83
2023-05-09T12:22:08.838Z,22.88
2023-05-09T12:23:13.215Z,22.83
2023-05-09T12:24:17.706Z,22.71
2023-05-09T12:25:22.290Z,22.73
2023-05-09T12:26:26.584Z,22.81
2023-05-09T12:27:31.097Z,22.92
2023-05-09T12:28:38.383Z,23.03
2023-05-09T12:29:41.841Z,23.12
2023-05-09T12:30:46.254Z,23.03
2023-05-09T12:31:50.698Z,22.99
2023-05-09T12:32:55.184Z,22.93
2023-05-09T12:33:59.551Z,22.88
2023-05-09T12:35:10.214Z,22.92
2023-05-09T12:36:13.238Z,23.00
2023-05-09T12:37:23.719Z,23.06
2023-05-09T12:38:26.822Z,23.14
2023-05-09T12:39:31.164Z,23.16
2023-05-09T12:40:41.541Z,23.13
2023-05-09T12:41:57.525Z,23.12
2023-05-09T12:42:49.076Z,23.20
2023-05-09T12:43:53.343Z,23.29
2023-05-09T12:44:57.799Z,23.33
2023-05-09T12:46:16.266Z,23.35
2023-05-09T12:47:19.700Z,23.33
2023-05-09T12:48:23.999Z,23.37
2023-05-09T12:49:42.563Z,23.41
2023-05-09T12:50:46.210Z,23.32
2023-05-09T12:51:50.446Z,23.27
2023-05-09T12:53:02.568Z,23.28
2023-05-09T12:53:59.188Z,23.37
2023-05-09T12:55:03.590Z,23.41
2023-05-09T12:56:07.961Z,23.28
2023-05-09T12:57:12.363Z,23.32
2023-05-09T12:58:16.947Z,23.35
2023-05-09T12:59:21.228Z,23.38
2023-05-09T13:00:25.604Z,23.42
2023-05-09T13:01:44.111Z,23.42
2023-05-09T13:03:01.690Z,23.41
2023-05-09T13:04:04.876Z,23.36
2023-05-09T13:05:15.474Z,23.17
2023-05-09T13:06:18.352Z,23.11
2023-05-09T13:07:22.817Z,23.01
2023-05-09T13:08:27.296Z,22.89
2023-05-09T13:09:31.725Z,22.81
2023-05-09T13:10:36.202Z,22.71
2023-05-09T13:11:40.570Z,22.52
2023-05-09T13:12:45.004Z,22.37
2023-05-09T13:13:49.500Z,22.24
2023-05-09T13:14:53.923Z,22.12
2023-05-09T13:16:01.247Z,21.94
2023-05-09T13:17:04.909Z,21.87
2023-05-09T13:18:09.196Z,21.85
2023-05-09T13:19:13.521Z,21.85
2023-05-09T13:20:18.405Z,21.86
2023-05-09T13:21:22.288Z,21.86
2023-05-09T13:22:26.839Z,21.78
2023-05-09T13:23:31.270Z,21.76
2023-05-09T13:24:35.710Z,21.75
2023-05-09T13:25:40.113Z,21.70
2023-05-09T13:26:44.610Z,21.68
2023-05-09T13:27:48.921Z,21.67
2023-05-09T13:28:53.362Z,21.64
2023-05-09T13:29:57.853Z,21.61
2023-05-09T13:31:02.313Z,21.57
2023-05-09T13:32:06.681Z,21.45
2023-05-09T13:33:24.436Z,21.41
2023-05-09T13:34:15.584Z,21.36
2023-05-09T13:35:19.940Z,21.32
2023-05-09T13:36:24.429Z,21.29
2023-05-09T13:37:28.933Z,21.26
2023-05-09T13:38:33.217Z,21.21
2023-05-09T13:39:37.717Z,21.16
2023-05-09T13:40:42.052Z,21.04
2023-05-09T13:41:46.541Z,20.90
2023-05-09T13:42:51.001Z,20.84
2023-05-09T13:43:55.303Z,20.80
2023-05-09T13:44:59.756Z,20.77
2023-05-09T13:46:04.091Z,20.77
2023-05-09T13:47:08.441Z,20.75
2023-05-09T13:48:26.987Z,20.73
2023-05-09T13:49:30.387Z,20.66
2023-05-09T13:50:34.699Z,20.67
2023-05-09T13:51:39.043Z,20.66
2023-05-09T13:52:43.406Z,20.66
2023-05-09T13:53:53.958Z,20.68
2023-05-09T13:54:57.119Z,20.65
2023-05-09T13:56:01.534Z,20.64
2023-05-09T13:57:06.040Z,20.64
2023-05-09T13:58:10.426Z,20.61
2023-05-09T13:59:14.762Z,20.59
2023-05-09T14:00:19.708Z,20.54
2023-05-09T14:01:23.702Z,20.54